Carnival Pride — H3VU — position and weather

sailwx.info

Track history (hours):
 
Tides and Currents Weather Stations Pressure Air Temp Water Temp Dewpoint Dewpoint Depression Visibility Wind Speed Wind Dir Waves Ship Positions

Carnival Pride

Operator: Carnival Cruise Lines

Last reported at 2014-Jul-21 07:33 UTC. Time now 2014-Jul-24 17:51 UTC.
Position N 36°50' W 075°48'.

Type: Ship. MMSI: 354215000.

Date/timePositionNaut miles runAvg speedWind from/ knotsBaromVisibWave heightAir tempDewpointWater temp
2014-Jul-21 07:33N 36°50' W 075°48'1313.5
2014-Jul-21 06:33N 36°59' W 076°00'1515.1
2014-Jul-21 05:33N 37°13' W 076°09'8817.2
2014-Jul-21 00:27N 38°39' W 076°25'1718.6
2014-Jul-20 23:34N 38°56' W 076°23'1414.1
2014-Jul-20 22:33N 39°10' W 076°26'9 9.4
2014-Jul-20 21:34N 39°15' W 076°36'1 0.5
2014-Jul-20 20:33N 39°16' W 076°36'0 0.0
2014-Jul-20 19:33N 39°16' W 076°36'0 0.0
2014-Jul-20 18:33N 39°16' W 076°36'0 0.0
2014-Jul-20 17:32N 39°16' W 076°36'0 0.0
2014-Jul-20 16:32N 39°16' W 076°36'0 0.0
2014-Jul-20 15:31N 39°16' W 076°36'0 0.0
2014-Jul-20 14:28N 39°16' W 076°36'0 0.0
2014-Jul-20 13:33N 39°16' W 076°36'3 3.1
2014-Jul-20 12:33N 39°14' W 076°33'1212.0
2014-Jul-20 11:34N 39°04' W 076°24'1817.8
2014-Jul-20 10:34N 38°47' W 076°25'8917.3
2014-Jul-20 05:24N 37°19' W 076°06'1416.0
2014-Jul-20 04:32N 37°05' W 076°06'1514.8
2014-Jul-20 03:31N 36°54' W 075°53'40919.0
2014-Jul-19 06:00N 30°42' W 079°18'19822.5 090 / 91018.0 5.4 28.024.028.0
2014-Jul-18 21:09N 27°24' W 079°27'  
2014-Jul-14 07:15N 36°53' W 075°54'1014.5
2014-Jul-14 06:33N 37°01' W 076°02'1615.9
2014-Jul-14 05:32N 37°16' W 076°07'8416.8
2014-Jul-14 00:33N 38°39' W 076°25'1717.3
2014-Jul-13 23:34N 38°56' W 076°23'1413.9
2014-Jul-13 22:34N 39°10' W 076°25'10 9.9
2014-Jul-13 21:34N 39°15' W 076°36'0 0.3
2014-Jul-13 20:23N 39°16' W 076°36'0 0.0
2014-Jul-13 19:32N 39°16' W 076°36'0 0.0
2014-Jul-13 18:31N 39°16' W 076°36'0 0.0
2014-Jul-13 17:31N 39°16' W 076°36'0 0.0
2014-Jul-13 16:33N 39°16' W 076°36'0 0.0
2014-Jul-13 15:33N 39°16' W 076°36'0 0.0
2014-Jul-13 14:33N 39°16' W 076°36'0 0.0
2014-Jul-13 13:33N 39°16' W 076°36'5 4.9
2014-Jul-13 12:33N 39°13' W 076°31'1110.8
2014-Jul-13 11:33N 39°04' W 076°23'1817.6
2014-Jul-13 10:33N 38°46' W 076°26'2819.3
2014-Jul-13 09:06N 38°19' W 076°18'1120.6
2014-Jul-13 08:33N 38°08' W 076°14'2018.9
2014-Jul-13 07:31N 37°49' W 076°10'1919.6
2014-Jul-13 06:34N 37°31' W 076°03'1919.0
2014-Jul-13 05:33N 37°12' W 076°09'1717.2
2014-Jul-13 04:33N 36°57' W 075°58'6 6.0
2014-Jul-13 03:33N 36°53' W 075°53'2120.6
2014-Jul-13 02:33N 36°37' W 075°37'2019.8
2014-Jul-13 01:33N 36°19' W 075°26'1818.2
2014-Jul-13 00:33N 36°03' W 075°16'55920.7
2014-Jul-11 21:33N 27°27' W 079°28'2422.6
2014-Jul-11 20:29N 27°05' W 079°18'2421.2
2014-Jul-11 19:22N 26°43' W 079°07'  
Track history (hours):
 
Tides and Currents Weather Stations Pressure Air Temp Water Temp Dewpoint Dewpoint Depression Visibility Wind Speed Wind Dir Waves Ship Positions

Carnival Pride

Operator: Carnival Cruise Lines

Last reported at 2014-Jul-21 07:33 UTC. Time now 2014-Jul-24 17:51 UTC.
Position N 36°50' W 075°48'.

Type: Ship. MMSI: 354215000.

Date/timePositionNaut miles runAvg speedWind from/ knotsBaromVisibWave heightAir tempDewpointWater temp
2014-Jul-21 07:33N 36°50' W 075°48'1313.5
2014-Jul-21 06:33N 36°59' W 076°00'1515.1
2014-Jul-21 05:33N 37°13' W 076°09'8817.2
2014-Jul-21 00:27N 38°39' W 076°25'1718.6
2014-Jul-20 23:34N 38°56' W 076°23'1414.1
2014-Jul-20 22:33N 39°10' W 076°26'9 9.4
2014-Jul-20 21:34N 39°15' W 076°36'1 0.5
2014-Jul-20 20:33N 39°16' W 076°36'0 0.0
2014-Jul-20 19:33N 39°16' W 076°36'0 0.0
2014-Jul-20 18:33N 39°16' W 076°36'0 0.0
2014-Jul-20 17:32N 39°16' W 076°36'0 0.0
2014-Jul-20 16:32N 39°16' W 076°36'0 0.0
2014-Jul-20 15:31N 39°16' W 076°36'0 0.0
2014-Jul-20 14:28N 39°16' W 076°36'0 0.0
2014-Jul-20 13:33N 39°16' W 076°36'3 3.1
2014-Jul-20 12:33N 39°14' W 076°33'1212.0
2014-Jul-20 11:34N 39°04' W 076°24'1817.8
2014-Jul-20 10:34N 38°47' W 076°25'8917.3
2014-Jul-20 05:24N 37°19' W 076°06'1416.0
2014-Jul-20 04:32N 37°05' W 076°06'1514.8
2014-Jul-20 03:31N 36°54' W 075°53'40919.0
2014-Jul-19 06:00N 30°42' W 079°18'19822.5 090 / 91018.0 5.4 28.024.028.0
2014-Jul-18 21:09N 27°24' W 079°27'  
2014-Jul-14 07:15N 36°53' W 075°54'1014.5
2014-Jul-14 06:33N 37°01' W 076°02'1615.9
2014-Jul-14 05:32N 37°16' W 076°07'8416.8
2014-Jul-14 00:33N 38°39' W 076°25'1717.3
2014-Jul-13 23:34N 38°56' W 076°23'1413.9
2014-Jul-13 22:34N 39°10' W 076°25'10 9.9
2014-Jul-13 21:34N 39°15' W 076°36'0 0.3
2014-Jul-13 20:23N 39°16' W 076°36'0 0.0
2014-Jul-13 19:32N 39°16' W 076°36'0 0.0
2014-Jul-13 18:31N 39°16' W 076°36'0 0.0
2014-Jul-13 17:31N 39°16' W 076°36'0 0.0
2014-Jul-13 16:33N 39°16' W 076°36'0 0.0
2014-Jul-13 15:33N 39°16' W 076°36'0 0.0
2014-Jul-13 14:33N 39°16' W 076°36'0 0.0
2014-Jul-13 13:33N 39°16' W 076°36'5 4.9
2014-Jul-13 12:33N 39°13' W 076°31'1110.8
2014-Jul-13 11:33N 39°04' W 076°23'1817.6
2014-Jul-13 10:33N 38°46' W 076°26'2819.3
2014-Jul-13 09:06N 38°19' W 076°18'1120.6
2014-Jul-13 08:33N 38°08' W 076°14'2018.9
2014-Jul-13 07:31N 37°49' W 076°10'1919.6
2014-Jul-13 06:34N 37°31' W 076°03'1919.0
2014-Jul-13 05:33N 37°12' W 076°09'1717.2
2014-Jul-13 04:33N 36°57' W 075°58'6 6.0
2014-Jul-13 03:33N 36°53' W 075°53'2120.6
2014-Jul-13 02:33N 36°37' W 075°37'2019.8
2014-Jul-13 01:33N 36°19' W 075°26'1818.2
2014-Jul-13 00:33N 36°03' W 075°16'55920.7
2014-Jul-11 21:33N 27°27' W 079°28'2422.6
2014-Jul-11 20:29N 27°05' W 079°18'2421.2
2014-Jul-11 19:22N 26°43' W 079°07'  

Dump ship's entire track history